LFMU

Béziers-Vias Airport

Airport
ICAO code
LFMU
IATA Code
BZR
Summary
ICAO Region
EUR
ICAO Territory
Location

, Languedoc-Roussillon

Serving
Beziers
Elevation
56 ft
Coordinates
43° 19' 25" N , 3° 21' 14" E
Metar
Observation
LFMU 092000Z AUTO 03003KT 7000 NSC 10/09 Q1000
Station
Beziers / Vias
Date/Time
2022-12-09 20:00:00
Wind direction
30°
Wind speed
03 kts
Lowest cloud amount
nil significant cloud
Temperature
10°C
Dew point
9°C
Humidity
93%
QNH
1000 hPa
Weather condition
n/a

Runways

Designator Length Width Surface Rops
10/28 1820 30 ASP No/No

Airport map

Aerial View

SKYbrary Partners:

Safety knowledge contributed by: